sensor_id;sensor_type;location;lat;lon;timestamp;P1;durP1;ratioP1;P2;durP2;ratioP2
40339;SDS011;26044;50.864;20.658;2024-03-02T00:01:51;42.72;;;21.50;;
40339;SDS011;26044;50.864;20.658;2024-03-02T00:04:19;43.50;;;21.60;;
40339;SDS011;26044;50.864;20.658;2024-03-02T00:06:53;42.30;;;20.75;;
40339;SDS011;26044;50.864;20.658;2024-03-02T00:09:36;41.40;;;21.02;;
40339;SDS011;26044;50.864;20.658;2024-03-02T00:12:12;43.45;;;20.88;;
40339;SDS011;26044;50.864;20.658;2024-03-02T00:14:47;40.47;;;21.60;;
40339;SDS011;26044;50.864;20.658;2024-03-02T00:20:59;39.38;;;19.55;;
40339;SDS011;26044;50.864;20.658;2024-03-02T00:27:58;40.50;;;20.67;;
40339;SDS011;26044;50.864;20.658;2024-03-02T00:30:57;43.38;;;21.25;;
40339;SDS011;26044;50.864;20.658;2024-03-02T00:33:57;43.65;;;20.83;;
40339;SDS011;26044;50.864;20.658;2024-03-02T00:37:02;44.13;;;22.02;;
40339;SDS011;26044;50.864;20.658;2024-03-02T00:40:07;39.42;;;20.23;;
40339;SDS011;26044;50.864;20.658;2024-03-02T00:50:42;35.95;;;18.67;;
40339;SDS011;26044;50.864;20.658;2024-03-02T00:56:58;43.60;;;21.45;;
40339;SDS011;26044;50.864;20.658;2024-03-02T01:26:49;45.28;;;21.15;;
40339;SDS011;26044;50.864;20.658;2024-03-02T01:30:36;42.15;;;22.98;;
40339;SDS011;26044;50.864;20.658;2024-03-02T01:32:58;46.60;;;21.58;;
40339;SDS011;26044;50.864;20.658;2024-03-02T01:35:53;42.80;;;20.33;;
40339;SDS011;26044;50.864;20.658;2024-03-02T01:42:53;47.20;;;23.52;;
40339;SDS011;26044;50.864;20.658;2024-03-02T01:49:51;45.17;;;22.60;;
40339;SDS011;26044;50.864;20.658;2024-03-02T01:53:02;47.08;;;23.45;;
40339;SDS011;26044;50.864;20.658;2024-03-02T01:55:49;47.13;;;24.58;;
40339;SDS011;26044;50.864;20.658;2024-03-02T02:05:44;42.92;;;21.48;;
40339;SDS011;26044;50.864;20.658;2024-03-02T02:09:28;46.42;;;22.52;;
40339;SDS011;26044;50.864;20.658;2024-03-02T02:15:34;47.70;;;23.52;;
40339;SDS011;26044;50.864;20.658;2024-03-02T02:32:43;48.15;;;23.33;;
40339;SDS011;26044;50.864;20.658;2024-03-02T02:39:05;49.47;;;24.13;;
40339;SDS011;26044;50.864;20.658;2024-03-02T02:42:31;45.95;;;22.65;;
40339;SDS011;26044;50.864;20.658;2024-03-02T02:49:00;44.60;;;23.15;;
40339;SDS011;26044;50.864;20.658;2024-03-02T02:52:22;49.53;;;23.88;;
40339;SDS011;26044;50.864;20.658;2024-03-02T02:55:16;49.70;;;24.92;;
40339;SDS011;26044;50.864;20.658;2024-03-02T02:58:07;49.17;;;25.00;;
40339;SDS011;26044;50.864;20.658;2024-03-02T03:01:12;49.55;;;24.73;;
40339;SDS011;26044;50.864;20.658;2024-03-02T03:04:24;47.40;;;23.60;;
40339;SDS011;26044;50.864;20.658;2024-03-02T03:07:33;47.88;;;24.55;;
40339;SDS011;26044;50.864;20.658;2024-03-02T03:10:26;51.22;;;24.30;;
40339;SDS011;26044;50.864;20.658;2024-03-02T03:13:40;50.83;;;25.70;;
40339;SDS011;26044;50.864;20.658;2024-03-02T03:16:58;44.67;;;22.55;;
40339;SDS011;26044;50.864;20.658;2024-03-02T03:19:58;45.40;;;23.02;;
40339;SDS011;26044;50.864;20.658;2024-03-02T03:23:21;48.90;;;22.80;;
40339;SDS011;26044;50.864;20.658;2024-03-02T03:26:16;49.35;;;23.92;;
40339;SDS011;26044;50.864;20.658;2024-03-02T03:29:33;45.63;;;22.55;;
40339;SDS011;26044;50.864;20.658;2024-03-02T03:32:40;49.50;;;22.77;;
40339;SDS011;26044;50.864;20.658;2024-03-02T03:39:15;46.08;;;22.40;;
40339;SDS011;26044;50.864;20.658;2024-03-02T03:51:48;46.80;;;23.25;;
40339;SDS011;26044;50.864;20.658;2024-03-02T03:54:44;45.40;;;23.95;;
40339;SDS011;26044;50.864;20.658;2024-03-02T03:57:51;48.47;;;24.00;;
40339;SDS011;26044;50.864;20.658;2024-03-02T04:03:49;45.72;;;22.33;;
40339;SDS011;26044;50.864;20.658;2024-03-02T04:09:53;49.97;;;23.27;;
40339;SDS011;26044;50.864;20.658;2024-03-02T04:29:30;49.20;;;23.10;;
40339;SDS011;26044;50.864;20.658;2024-03-02T04:32:27;47.50;;;23.55;;
40339;SDS011;26044;50.864;20.658;2024-03-02T04:38:41;47.15;;;21.67;;
40339;SDS011;26044;50.864;20.658;2024-03-02T04:44:40;50.13;;;23.27;;
40339;SDS011;26044;50.864;20.658;2024-03-02T04:51:04;49.63;;;25.63;;
40339;SDS011;26044;50.864;20.658;2024-03-02T04:54:07;48.60;;;23.95;;
40339;SDS011;26044;50.864;20.658;2024-03-02T05:00:54;51.08;;;25.23;;
40339;SDS011;26044;50.864;20.658;2024-03-02T05:04:09;47.22;;;24.65;;
40339;SDS011;26044;50.864;20.658;2024-03-02T05:17:42;49.55;;;24.20;;
40339;SDS011;26044;50.864;20.658;2024-03-02T05:20:46;49.97;;;23.80;;
40339;SDS011;26044;50.864;20.658;2024-03-02T05:26:58;50.90;;;23.60;;
40339;SDS011;26044;50.864;20.658;2024-03-02T05:40:10;48.63;;;23.63;;
40339;SDS011;26044;50.864;20.658;2024-03-02T05:43:03;47.42;;;24.50;;
40339;SDS011;26044;50.864;20.658;2024-03-02T05:46:03;53.03;;;24.80;;
40339;SDS011;26044;50.864;20.658;2024-03-02T05:49:08;47.23;;;24.33;;
40339;SDS011;26044;50.864;20.658;2024-03-02T05:52:31;55.55;;;26.20;;
40339;SDS011;26044;50.864;20.658;2024-03-02T05:56:20;50.67;;;24.55;;
40339;SDS011;26044;50.864;20.658;2024-03-02T05:59:05;44.55;;;23.50;;
40339;SDS011;26044;50.864;20.658;2024-03-02T06:02:31;48.08;;;24.10;;
40339;SDS011;26044;50.864;20.658;2024-03-02T06:05:35;52.13;;;26.23;;
40339;SDS011;26044;50.864;20.658;2024-03-02T06:08:39;48.03;;;25.17;;
40339;SDS011;26044;50.864;20.658;2024-03-02T06:12:12;56.25;;;24.35;;
40339;SDS011;26044;50.864;20.658;2024-03-02T06:25:51;55.40;;;26.13;;
40339;SDS011;26044;50.864;20.658;2024-03-02T06:28:58;51.47;;;24.58;;
40339;SDS011;26044;50.864;20.658;2024-03-02T06:31:59;48.83;;;24.67;;
40339;SDS011;26044;50.864;20.658;2024-03-02T06:41:18;58.35;;;26.90;;
40339;SDS011;26044;50.864;20.658;2024-03-02T06:44:22;53.22;;;25.20;;
40339;SDS011;26044;50.864;20.658;2024-03-02T06:47:38;51.80;;;22.95;;
40339;SDS011;26044;50.864;20.658;2024-03-02T06:57:07;47.92;;;25.08;;
40339;SDS011;26044;50.864;20.658;2024-03-02T06:59:50;52.10;;;24.42;;
40339;SDS011;26044;50.864;20.658;2024-03-02T07:06:27;47.63;;;23.58;;
40339;SDS011;26044;50.864;20.658;2024-03-02T07:22:31;50.78;;;24.83;;
40339;SDS011;26044;50.864;20.658;2024-03-02T07:25:42;52.38;;;25.05;;
40339;SDS011;26044;50.864;20.658;2024-03-02T07:28:43;51.65;;;24.92;;
40339;SDS011;26044;50.864;20.658;2024-03-02T07:31:42;53.70;;;24.17;;
40339;SDS011;26044;50.864;20.658;2024-03-02T07:34:49;48.03;;;23.88;;
40339;SDS011;26044;50.864;20.658;2024-03-02T07:37:21;53.17;;;24.65;;
40339;SDS011;26044;50.864;20.658;2024-03-02T07:39:57;57.88;;;28.95;;
40339;SDS011;26044;50.864;20.658;2024-03-02T07:42:54;52.13;;;25.45;;
40339;SDS011;26044;50.864;20.658;2024-03-02T07:45:34;50.25;;;24.42;;
40339;SDS011;26044;50.864;20.658;2024-03-02T07:48:36;50.70;;;25.17;;
40339;SDS011;26044;50.864;20.658;2024-03-02T07:51:14;55.72;;;27.63;;
40339;SDS011;26044;50.864;20.658;2024-03-02T07:53:57;53.45;;;27.67;;
40339;SDS011;26044;50.864;20.658;2024-03-02T07:56:27;58.15;;;26.25;;
40339;SDS011;26044;50.864;20.658;2024-03-02T07:58:54;51.67;;;23.52;;
40339;SDS011;26044;50.864;20.658;2024-03-02T08:01:35;52.17;;;25.27;;
40339;SDS011;26044;50.864;20.658;2024-03-02T08:04:02;63.63;;;28.63;;
40339;SDS011;26044;50.864;20.658;2024-03-02T08:06:46;58.83;;;25.80;;
40339;SDS011;26044;50.864;20.658;2024-03-02T08:09:20;53.65;;;24.00;;
40339;SDS011;26044;50.864;20.658;2024-03-02T08:12:01;55.55;;;25.35;;
40339;SDS011;26044;50.864;20.658;2024-03-02T08:14:47;53.13;;;25.13;;
40339;SDS011;26044;50.864;20.658;2024-03-02T08:17:35;58.83;;;27.00;;
40339;SDS011;26044;50.864;20.658;2024-03-02T09:28:08;51.03;;;26.48;;
40339;SDS011;26044;50.864;20.658;2024-03-02T09:31:05;58.00;;;27.98;;
40339;SDS011;26044;50.864;20.658;2024-03-02T09:33:49;56.65;;;26.08;;
40339;SDS011;26044;50.864;20.658;2024-03-02T09:36:44;63.40;;;29.13;;
40339;SDS011;26044;50.864;20.658;2024-03-02T09:39:36;55.88;;;28.02;;
40339;SDS011;26044;50.864;20.658;2024-03-02T09:42:46;55.45;;;27.15;;
40339;SDS011;26044;50.864;20.658;2024-03-02T09:45:40;56.90;;;28.73;;
40339;SDS011;26044;50.864;20.658;2024-03-02T09:52:17;60.17;;;28.05;;
40339;SDS011;26044;50.864;20.658;2024-03-02T09:55:00;57.15;;;28.35;;
40339;SDS011;26044;50.864;20.658;2024-03-02T09:57:43;61.53;;;30.85;;
40339;SDS011;26044;50.864;20.658;2024-03-02T10:03:20;67.07;;;31.60;;
40339;SDS011;26044;50.864;20.658;2024-03-02T15:08:53;76.15;;;38.47;;
40339;SDS011;26044;50.864;20.658;2024-03-02T15:11:46;77.03;;;39.53;;
40339;SDS011;26044;50.864;20.658;2024-03-02T17:57:25;74.63;;;43.08;;
40339;SDS011;26044;50.864;20.658;2024-03-02T17:59:57;79.40;;;44.15;;
